sensor_id;sensor_type;location;lat;lon;timestamp;temperature;humidity
59999;DHT22;45859;51.378;6.736;2023-02-15T00:00:09;4.80;99.90
59999;DHT22;45859;51.378;6.736;2023-02-15T00:02:38;4.80;99.90
59999;DHT22;45859;51.378;6.736;2023-02-15T00:05:04;4.80;99.90
59999;DHT22;45859;51.378;6.736;2023-02-15T00:07:30;4.80;99.90
59999;DHT22;45859;51.378;6.736;2023-02-15T00:09:55;4.70;99.90
59999;DHT22;45859;51.378;6.736;2023-02-15T00:12:21;4.70;99.90
59999;DHT22;45859;51.378;6.736;2023-02-15T00:14:47;4.70;99.90
59999;DHT22;45859;51.378;6.736;2023-02-15T00:17:13;4.70;99.90
59999;DHT22;45859;51.378;6.736;2023-02-15T00:19:38;5.30;99.90
59999;DHT22;45859;51.378;6.736;2023-02-15T00:22:05;4.60;99.90
59999;DHT22;45859;51.378;6.736;2023-02-15T00:24:31;4.60;99.90
59999;DHT22;45859;51.378;6.736;2023-02-15T00:26:56;4.60;99.90
59999;DHT22;45859;51.378;6.736;2023-02-15T00:29:22;4.50;99.90
59999;DHT22;45859;51.378;6.736;2023-02-15T00:31:48;4.50;99.90
59999;DHT22;45859;51.378;6.736;2023-02-15T00:34:17;4.50;99.90
59999;DHT22;45859;51.378;6.736;2023-02-15T00:36:43;4.40;99.90
59999;DHT22;45859;51.378;6.736;2023-02-15T00:39:09;4.30;99.90
59999;DHT22;45859;51.378;6.736;2023-02-15T00:41:35;4.30;99.90
59999;DHT22;45859;51.378;6.736;2023-02-15T00:44:01;4.30;99.90
59999;DHT22;45859;51.378;6.736;2023-02-15T00:46:27;4.20;99.90
59999;DHT22;45859;51.378;6.736;2023-02-15T00:48:53;4.20;99.90
59999;DHT22;45859;51.378;6.736;2023-02-15T00:51:18;4.20;99.90
59999;DHT22;45859;51.378;6.736;2023-02-15T00:53:45;4.20;99.90
59999;DHT22;45859;51.378;6.736;2023-02-15T00:56:11;4.20;99.90
59999;DHT22;45859;51.378;6.736;2023-02-15T00:58:36;4.20;99.90
59999;DHT22;45859;51.378;6.736;2023-02-15T01:01:05;4.10;99.90
59999;DHT22;45859;51.378;6.736;2023-02-15T01:03:31;4.10;99.90
59999;DHT22;45859;51.378;6.736;2023-02-15T01:05:57;4.10;99.90
59999;DHT22;45859;51.378;6.736;2023-02-15T01:08:22;4.10;99.90
59999;DHT22;45859;51.378;6.736;2023-02-15T01:10:48;4.10;99.90
59999;DHT22;45859;51.378;6.736;2023-02-15T01:13:15;4.00;99.90
59999;DHT22;45859;51.378;6.736;2023-02-15T01:15:42;4.00;99.90
59999;DHT22;45859;51.378;6.736;2023-02-15T01:18:08;4.00;99.90
59999;DHT22;45859;51.378;6.736;2023-02-15T01:20:36;4.00;99.90
59999;DHT22;45859;51.378;6.736;2023-02-15T01:23:05;4.00;99.90
59999;DHT22;45859;51.378;6.736;2023-02-15T01:25:33;3.90;99.90
59999;DHT22;45859;51.378;6.736;2023-02-15T01:27:59;3.90;99.90
59999;DHT22;45859;51.378;6.736;2023-02-15T01:30:24;3.80;99.90
59999;DHT22;45859;51.378;6.736;2023-02-15T01:32:51;3.80;99.90
59999;DHT22;45859;51.378;6.736;2023-02-15T01:35:17;3.80;99.90
59999;DHT22;45859;51.378;6.736;2023-02-15T01:37:42;3.80;99.90
59999;DHT22;45859;51.378;6.736;2023-02-15T01:40:12;3.80;99.90
59999;DHT22;45859;51.378;6.736;2023-02-15T01:42:38;3.80;99.90
59999;DHT22;45859;51.378;6.736;2023-02-15T01:45:24;3.80;99.90
59999;DHT22;45859;51.378;6.736;2023-02-15T01:47:56;3.80;99.90
59999;DHT22;45859;51.378;6.736;2023-02-15T01:50:29;3.70;99.90
59999;DHT22;45859;51.378;6.736;2023-02-15T01:53:01;3.70;99.90
59999;DHT22;45859;51.378;6.736;2023-02-15T01:55:32;3.70;99.90
59999;DHT22;45859;51.378;6.736;2023-02-15T01:58:00;3.70;99.90
59999;DHT22;45859;51.378;6.736;2023-02-15T02:00:26;3.70;99.90
59999;DHT22;45859;51.378;6.736;2023-02-15T02:02:54;4.00;99.90
59999;DHT22;45859;51.378;6.736;2023-02-15T02:05:20;3.70;99.90
59999;DHT22;45859;51.378;6.736;2023-02-15T02:07:47;3.70;99.90
59999;DHT22;45859;51.378;6.736;2023-02-15T02:10:16;3.60;99.90
59999;DHT22;45859;51.378;6.736;2023-02-15T02:12:44;3.60;99.90
59999;DHT22;45859;51.378;6.736;2023-02-15T02:15:10;3.60;99.90
59999;DHT22;45859;51.378;6.736;2023-02-15T02:26:24;3.60;99.90
59999;DHT22;45859;51.378;6.736;2023-02-15T02:34:28;3.60;99.90
59999;DHT22;45859;51.378;6.736;2023-02-15T02:40:17;3.50;99.90
59999;DHT22;45859;51.378;6.736;2023-02-15T02:42:59;3.50;99.90
59999;DHT22;45859;51.378;6.736;2023-02-15T02:45:41;3.40;99.90
59999;DHT22;45859;51.378;6.736;2023-02-15T02:48:13;3.50;99.90
59999;DHT22;45859;51.378;6.736;2023-02-15T02:50:41;3.40;99.90
59999;DHT22;45859;51.378;6.736;2023-02-15T02:53:10;3.40;99.90
59999;DHT22;45859;51.378;6.736;2023-02-15T02:56:14;4.80;99.90
59999;DHT22;45859;51.378;6.736;2023-02-15T02:58:49;3.40;99.90
59999;DHT22;45859;51.378;6.736;2023-02-15T03:03:51;3.40;99.90
59999;DHT22;45859;51.378;6.736;2023-02-15T03:06:24;3.40;99.90
59999;DHT22;45859;51.378;6.736;2023-02-15T03:09:03;3.30;99.90
59999;DHT22;45859;51.378;6.736;2023-02-15T03:11:31;3.30;99.90
59999;DHT22;45859;51.378;6.736;2023-02-15T03:13:57;3.30;99.90
59999;DHT22;45859;51.378;6.736;2023-02-15T03:16:23;3.40;99.90
59999;DHT22;45859;51.378;6.736;2023-02-15T03:19:02;3.30;99.90
59999;DHT22;45859;51.378;6.736;2023-02-15T03:21:47;3.30;99.90
59999;DHT22;45859;51.378;6.736;2023-02-15T03:24:20;3.30;99.90
59999;DHT22;45859;51.378;6.736;2023-02-15T03:26:50;3.20;99.90
59999;DHT22;45859;51.378;6.736;2023-02-15T03:29:19;3.20;99.90
59999;DHT22;45859;51.378;6.736;2023-02-15T03:31:47;3.30;99.90
59999;DHT22;45859;51.378;6.736;2023-02-15T03:34:15;3.30;99.90
59999;DHT22;45859;51.378;6.736;2023-02-15T03:42:31;3.20;99.90
59999;DHT22;45859;51.378;6.736;2023-02-15T03:45:02;3.20;99.90
59999;DHT22;45859;51.378;6.736;2023-02-15T03:47:35;3.20;99.90
59999;DHT22;45859;51.378;6.736;2023-02-15T03:53:00;3.20;99.90
59999;DHT22;45859;51.378;6.736;2023-02-15T03:55:27;3.10;99.90
59999;DHT22;45859;51.378;6.736;2023-02-15T03:57:53;3.20;99.90
59999;DHT22;45859;51.378;6.736;2023-02-15T04:00:42;3.20;99.90
59999;DHT22;45859;51.378;6.736;2023-02-15T04:03:42;3.20;99.90
59999;DHT22;45859;51.378;6.736;2023-02-15T04:06:10;3.10;99.90
59999;DHT22;45859;51.378;6.736;2023-02-15T04:08:35;3.00;99.90
59999;DHT22;45859;51.378;6.736;2023-02-15T04:11:19;3.00;99.90
59999;DHT22;45859;51.378;6.736;2023-02-15T04:13:45;3.00;99.90
59999;DHT22;45859;51.378;6.736;2023-02-15T04:16:11;3.00;99.90
59999;DHT22;45859;51.378;6.736;2023-02-15T04:18:41;3.00;99.90
59999;DHT22;45859;51.378;6.736;2023-02-15T04:21:27;3.00;99.90
59999;DHT22;45859;51.378;6.736;2023-02-15T04:24:12;3.00;99.90
59999;DHT22;45859;51.378;6.736;2023-02-15T04:26:57;3.00;99.90
59999;DHT22;45859;51.378;6.736;2023-02-15T04:29:24;3.00;99.90
59999;DHT22;45859;51.378;6.736;2023-02-15T04:31:51;3.00;99.90
59999;DHT22;45859;51.378;6.736;2023-02-15T04:34:17;2.90;99.90
59999;DHT22;45859;51.378;6.736;2023-02-15T04:36:43;2.90;99.90
59999;DHT22;45859;51.378;6.736;2023-02-15T04:39:09;2.90;99.90
59999;DHT22;45859;51.378;6.736;2023-02-15T04:41:37;2.90;99.90
59999;DHT22;45859;51.378;6.736;2023-02-15T04:44:03;2.90;99.90
59999;DHT22;45859;51.378;6.736;2023-02-15T04:46:28;2.90;99.90
59999;DHT22;45859;51.378;6.736;2023-02-15T04:48:54;2.80;99.90
59999;DHT22;45859;51.378;6.736;2023-02-15T04:51:20;2.90;99.90
59999;DHT22;45859;51.378;6.736;2023-02-15T04:53:46;2.90;99.90
59999;DHT22;45859;51.378;6.736;2023-02-15T04:56:11;2.80;99.90
59999;DHT22;45859;51.378;6.736;2023-02-15T04:58:37;2.80;99.90
59999;DHT22;45859;51.378;6.736;2023-02-15T05:01:06;2.80;99.90
59999;DHT22;45859;51.378;6.736;2023-02-15T05:03:32;2.80;99.90
59999;DHT22;45859;51.378;6.736;2023-02-15T05:05:57;2.70;99.90
59999;DHT22;45859;51.378;6.736;2023-02-15T05:08:23;2.70;99.90
59999;DHT22;45859;51.378;6.736;2023-02-15T05:10:49;3.70;99.90
59999;DHT22;45859;51.378;6.736;2023-02-15T05:13:15;2.70;99.90
59999;DHT22;45859;51.378;6.736;2023-02-15T05:15:40;2.70;99.90
59999;DHT22;45859;51.378;6.736;2023-02-15T05:18:06;2.70;99.90
59999;DHT22;45859;51.378;6.736;2023-02-15T05:20:33;2.70;99.90
59999;DHT22;45859;51.378;6.736;2023-02-15T05:22:58;2.70;99.90
59999;DHT22;45859;51.378;6.736;2023-02-15T05:25:24;2.70;99.90
59999;DHT22;45859;51.378;6.736;2023-02-15T05:28:11;2.60;99.90
59999;DHT22;45859;51.378;6.736;2023-02-15T05:30:51;2.60;99.90
59999;DHT22;45859;51.378;6.736;2023-02-15T05:33:18;2.60;99.90
59999;DHT22;45859;51.378;6.736;2023-02-15T05:35:43;2.60;99.90
59999;DHT22;45859;51.378;6.736;2023-02-15T05:38:09;2.60;99.90
59999;DHT22;45859;51.378;6.736;2023-02-15T05:40:35;2.50;99.90
59999;DHT22;45859;51.378;6.736;2023-02-15T05:43:00;2.60;99.90
59999;DHT22;45859;51.378;6.736;2023-02-15T05:45:26;2.50;99.90
59999;DHT22;45859;51.378;6.736;2023-02-15T05:47:52;2.20;99.90
59999;DHT22;45859;51.378;6.736;2023-02-15T05:50:17;2.50;99.90
59999;DHT22;45859;51.378;6.736;2023-02-15T05:52:43;2.50;99.90
59999;DHT22;45859;51.378;6.736;2023-02-15T05:55:09;2.50;99.90
59999;DHT22;45859;51.378;6.736;2023-02-15T05:57:35;2.50;99.90
59999;DHT22;45859;51.378;6.736;2023-02-15T06:00:03;2.40;99.90
59999;DHT22;45859;51.378;6.736;2023-02-15T06:02:29;2.50;99.90
59999;DHT22;45859;51.378;6.736;2023-02-15T06:04:58;2.50;99.90
59999;DHT22;45859;51.378;6.736;2023-02-15T06:07:24;2.50;99.90
59999;DHT22;45859;51.378;6.736;2023-02-15T06:09:49;2.50;99.90
59999;DHT22;45859;51.378;6.736;2023-02-15T06:12:15;2.50;99.90
59999;DHT22;45859;51.378;6.736;2023-02-15T06:14:41;2.50;99.90
59999;DHT22;45859;51.378;6.736;2023-02-15T06:17:06;3.10;99.90
59999;DHT22;45859;51.378;6.736;2023-02-15T06:19:32;2.40;99.90
59999;DHT22;45859;51.378;6.736;2023-02-15T06:21:58;2.40;99.90
59999;DHT22;45859;51.378;6.736;2023-02-15T06:24:23;2.50;99.90
59999;DHT22;45859;51.378;6.736;2023-02-15T06:26:49;2.40;99.90
59999;DHT22;45859;51.378;6.736;2023-02-15T06:29:15;2.40;99.90
59999;DHT22;45859;51.378;6.736;2023-02-15T06:31:40;2.40;99.90
59999;DHT22;45859;51.378;6.736;2023-02-15T06:34:06;2.50;99.90
59999;DHT22;45859;51.378;6.736;2023-02-15T06:36:32;2.40;99.90
59999;DHT22;45859;51.378;6.736;2023-02-15T06:38:57;2.40;99.90
59999;DHT22;45859;51.378;6.736;2023-02-15T06:41:23;2.50;99.90
59999;DHT22;45859;51.378;6.736;2023-02-15T06:43:49;2.50;99.90
59999;DHT22;45859;51.378;6.736;2023-02-15T06:46:15;2.50;99.90
59999;DHT22;45859;51.378;6.736;2023-02-15T06:48:42;2.50;99.90
59999;DHT22;45859;51.378;6.736;2023-02-15T06:51:08;2.50;99.90
59999;DHT22;45859;51.378;6.736;2023-02-15T06:53:34;2.50;99.90
59999;DHT22;45859;51.378;6.736;2023-02-15T06:56:06;2.50;99.90
59999;DHT22;45859;51.378;6.736;2023-02-15T06:58:41;2.50;99.90
59999;DHT22;45859;51.378;6.736;2023-02-15T07:01:08;2.50;99.90
59999;DHT22;45859;51.378;6.736;2023-02-15T07:03:34;2.50;99.90
59999;DHT22;45859;51.378;6.736;2023-02-15T07:06:02;2.40;99.90
59999;DHT22;45859;51.378;6.736;2023-02-15T07:08:28;2.50;99.90
59999;DHT22;45859;51.378;6.736;2023-02-15T07:10:55;2.50;99.90
59999;DHT22;45859;51.378;6.736;2023-02-15T07:13:41;2.50;99.90
59999;DHT22;45859;51.378;6.736;2023-02-15T07:16:08;2.50;99.90
59999;DHT22;45859;51.378;6.736;2023-02-15T07:18:34;2.50;99.90
59999;DHT22;45859;51.378;6.736;2023-02-15T07:20:59;2.50;99.90
59999;DHT22;45859;51.378;6.736;2023-02-15T07:23:25;3.00;99.90
59999;DHT22;45859;51.378;6.736;2023-02-15T07:25:57;2.60;99.90
59999;DHT22;45859;51.378;6.736;2023-02-15T07:28:22;2.60;99.90
59999;DHT22;45859;51.378;6.736;2023-02-15T07:30:48;2.70;99.90
59999;DHT22;45859;51.378;6.736;2023-02-15T07:33:13;2.70;99.90
59999;DHT22;45859;51.378;6.736;2023-02-15T07:35:53;2.80;99.90
59999;DHT22;45859;51.378;6.736;2023-02-15T07:38:20;2.90;99.90
59999;DHT22;45859;51.378;6.736;2023-02-15T07:40:46;3.00;99.90
59999;DHT22;45859;51.378;6.736;2023-02-15T07:43:13;3.10;99.90
59999;DHT22;45859;51.378;6.736;2023-02-15T07:45:39;3.40;99.90
59999;DHT22;45859;51.378;6.736;2023-02-15T07:48:05;3.50;99.90
59999;DHT22;45859;51.378;6.736;2023-02-15T07:50:31;3.80;99.90
59999;DHT22;45859;51.378;6.736;2023-02-15T07:52:57;3.90;99.90
59999;DHT22;45859;51.378;6.736;2023-02-15T07:55:23;4.10;99.90
59999;DHT22;45859;51.378;6.736;2023-02-15T07:57:50;4.30;99.90
59999;DHT22;45859;51.378;6.736;2023-02-15T08:00:18;4.40;99.90
59999;DHT22;45859;51.378;6.736;2023-02-15T08:02:49;4.60;99.90
59999;DHT22;45859;51.378;6.736;2023-02-15T08:05:35;4.80;99.90
59999;DHT22;45859;51.378;6.736;2023-02-15T08:08:00;5.10;99.90
59999;DHT22;45859;51.378;6.736;2023-02-15T08:10:26;7.10;99.90
59999;DHT22;45859;51.378;6.736;2023-02-15T08:13:11;5.20;99.90
59999;DHT22;45859;51.378;6.736;2023-02-15T08:15:37;5.30;99.90
59999;DHT22;45859;51.378;6.736;2023-02-15T08:18:03;5.50;99.90
59999;DHT22;45859;51.378;6.736;2023-02-15T08:20:28;5.40;99.90
59999;DHT22;45859;51.378;6.736;2023-02-15T08:22:54;5.70;99.90
59999;DHT22;45859;51.378;6.736;2023-02-15T08:25:20;5.90;99.90
59999;DHT22;45859;51.378;6.736;2023-02-15T08:27:45;5.80;99.90
59999;DHT22;45859;51.378;6.736;2023-02-15T08:30:11;5.80;99.90
59999;DHT22;45859;51.378;6.736;2023-02-15T08:32:39;5.70;99.90
59999;DHT22;45859;51.378;6.736;2023-02-15T08:35:05;5.50;99.90
59999;DHT22;45859;51.378;6.736;2023-02-15T08:37:30;5.60;99.90
59999;DHT22;45859;51.378;6.736;2023-02-15T08:39:56;6.10;99.90
59999;DHT22;45859;51.378;6.736;2023-02-15T08:42:22;6.50;99.90
59999;DHT22;45859;51.378;6.736;2023-02-15T08:44:47;6.40;99.90
59999;DHT22;45859;51.378;6.736;2023-02-15T08:47:15;6.60;99.90
59999;DHT22;45859;51.378;6.736;2023-02-15T08:49:41;7.10;99.90
59999;DHT22;45859;51.378;6.736;2023-02-15T08:52:06;6.90;99.90
59999;DHT22;45859;51.378;6.736;2023-02-15T08:54:32;7.20;99.90
59999;DHT22;45859;51.378;6.736;2023-02-15T08:56:58;8.40;99.90
59999;DHT22;45859;51.378;6.736;2023-02-15T08:59:24;7.60;99.90
59999;DHT22;45859;51.378;6.736;2023-02-15T09:01:52;7.80;99.90
59999;DHT22;45859;51.378;6.736;2023-02-15T09:04:19;8.20;99.90
59999;DHT22;45859;51.378;6.736;2023-02-15T09:06:46;8.50;99.90
59999;DHT22;45859;51.378;6.736;2023-02-15T09:09:12;8.60;99.90
59999;DHT22;45859;51.378;6.736;2023-02-15T09:11:41;8.50;99.90
59999;DHT22;45859;51.378;6.736;2023-02-15T09:14:12;7.90;99.90
59999;DHT22;45859;51.378;6.736;2023-02-15T09:16:42;7.60;99.90
59999;DHT22;45859;51.378;6.736;2023-02-15T09:19:11;7.50;99.90
59999;DHT22;45859;51.378;6.736;2023-02-15T09:21:38;7.30;99.90
59999;DHT22;45859;51.378;6.736;2023-02-15T09:24:06;7.10;99.90
59999;DHT22;45859;51.378;6.736;2023-02-15T09:26:35;6.80;99.90
59999;DHT22;45859;51.378;6.736;2023-02-15T09:29:02;6.60;99.90
59999;DHT22;45859;51.378;6.736;2023-02-15T09:31:36;6.70;99.90
59999;DHT22;45859;51.378;6.736;2023-02-15T09:34:02;6.70;99.90
59999;DHT22;45859;51.378;6.736;2023-02-15T09:36:30;6.70;99.90
59999;DHT22;45859;51.378;6.736;2023-02-15T09:45:09;7.50;99.90
59999;DHT22;45859;51.378;6.736;2023-02-15T09:56:04;7.40;99.90
59999;DHT22;45859;51.378;6.736;2023-02-15T09:58:50;7.50;99.90
59999;DHT22;45859;51.378;6.736;2023-02-15T10:04:05;7.80;99.90
59999;DHT22;45859;51.378;6.736;2023-02-15T10:06:59;8.00;99.90
59999;DHT22;45859;51.378;6.736;2023-02-15T10:15:57;7.80;99.90
59999;DHT22;45859;51.378;6.736;2023-02-15T10:26:21;7.90;99.90
59999;DHT22;45859;51.378;6.736;2023-02-15T10:31:32;7.80;99.90
59999;DHT22;45859;51.378;6.736;2023-02-15T10:34:11;8.00;99.90
59999;DHT22;45859;51.378;6.736;2023-02-15T10:39:38;8.10;99.90
59999;DHT22;45859;51.378;6.736;2023-02-15T10:50:55;8.40;99.90
59999;DHT22;45859;51.378;6.736;2023-02-15T10:56:34;8.60;99.90
59999;DHT22;45859;51.378;6.736;2023-02-15T10:59:23;8.80;99.90
59999;DHT22;45859;51.378;6.736;2023-02-15T11:02:14;9.10;99.90
59999;DHT22;45859;51.378;6.736;2023-02-15T11:05:07;9.20;99.90
59999;DHT22;45859;51.378;6.736;2023-02-15T11:07:43;9.50;99.90
59999;DHT22;45859;51.378;6.736;2023-02-15T11:12:50;9.30;99.90
59999;DHT22;45859;51.378;6.736;2023-02-15T11:15:30;9.30;99.90
59999;DHT22;45859;51.378;6.736;2023-02-15T11:18:05;9.50;99.90
59999;DHT22;45859;51.378;6.736;2023-02-15T11:20:37;9.40;99.90
59999;DHT22;45859;51.378;6.736;2023-02-15T11:23:12;9.40;99.90
59999;DHT22;45859;51.378;6.736;2023-02-15T11:25:43;9.20;99.90
59999;DHT22;45859;51.378;6.736;2023-02-15T11:28:22;9.30;99.90
59999;DHT22;45859;51.378;6.736;2023-02-15T11:30:53;9.50;99.90
59999;DHT22;45859;51.378;6.736;2023-02-15T11:33:31;9.70;99.90
59999;DHT22;45859;51.378;6.736;2023-02-15T11:36:08;9.80;99.90
59999;DHT22;45859;51.378;6.736;2023-02-15T11:38:35;10.00;99.90
59999;DHT22;45859;51.378;6.736;2023-02-15T11:41:11;10.00;99.90
59999;DHT22;45859;51.378;6.736;2023-02-15T11:43:57;10.00;99.90
59999;DHT22;45859;51.378;6.736;2023-02-15T11:46:26;10.00;99.90
59999;DHT22;45859;51.378;6.736;2023-02-15T11:48:52;10.90;99.90
59999;DHT22;45859;51.378;6.736;2023-02-15T11:51:21;10.30;99.90
59999;DHT22;45859;51.378;6.736;2023-02-15T11:53:48;10.20;99.90
59999;DHT22;45859;51.378;6.736;2023-02-15T11:56:20;10.30;99.90
59999;DHT22;45859;51.378;6.736;2023-02-15T11:59:06;10.30;99.90
59999;DHT22;45859;51.378;6.736;2023-02-15T12:01:40;10.40;99.90
59999;DHT22;45859;51.378;6.736;2023-02-15T12:07:27;10.40;99.90
59999;DHT22;45859;51.378;6.736;2023-02-15T12:12:32;10.40;99.90
59999;DHT22;45859;51.378;6.736;2023-02-15T12:15:10;10.40;99.90
59999;DHT22;45859;51.378;6.736;2023-02-15T12:17:48;10.30;99.90
59999;DHT22;45859;51.378;6.736;2023-02-15T12:22:49;10.90;99.90
59999;DHT22;45859;51.378;6.736;2023-02-15T12:25:51;10.50;99.90
59999;DHT22;45859;51.378;6.736;2023-02-15T12:28:40;10.60;99.90
59999;DHT22;45859;51.378;6.736;2023-02-15T12:31:20;10.80;99.90
59999;DHT22;45859;51.378;6.736;2023-02-15T12:33:47;10.80;99.90
59999;DHT22;45859;51.378;6.736;2023-02-15T12:36:21;11.20;99.90
59999;DHT22;45859;51.378;6.736;2023-02-15T12:41:46;11.00;99.90
59999;DHT22;45859;51.378;6.736;2023-02-15T12:44:20;11.30;99.90
59999;DHT22;45859;51.378;6.736;2023-02-15T12:49:36;11.00;99.90
59999;DHT22;45859;51.378;6.736;2023-02-15T12:52:25;11.10;99.90
59999;DHT22;45859;51.378;6.736;2023-02-15T12:54:50;11.20;99.90
59999;DHT22;45859;51.378;6.736;2023-02-15T12:59:57;11.40;99.90
59999;DHT22;45859;51.378;6.736;2023-02-15T13:02:44;11.90;99.90
59999;DHT22;45859;51.378;6.736;2023-02-15T13:05:34;11.80;99.90
59999;DHT22;45859;51.378;6.736;2023-02-15T13:08:12;11.40;99.90
59999;DHT22;45859;51.378;6.736;2023-02-15T13:11:03;11.40;99.90
59999;DHT22;45859;51.378;6.736;2023-02-15T13:13:31;11.60;99.90
59999;DHT22;45859;51.378;6.736;2023-02-15T13:16:01;11.90;99.90
59999;DHT22;45859;51.378;6.736;2023-02-15T13:18:44;11.60;99.90
59999;DHT22;45859;51.378;6.736;2023-02-15T13:21:18;11.80;99.90
59999;DHT22;45859;51.378;6.736;2023-02-15T13:23:52;11.80;99.90
59999;DHT22;45859;51.378;6.736;2023-02-15T13:26:21;11.90;99.90
59999;DHT22;45859;51.378;6.736;2023-02-15T13:28:51;11.80;99.90
59999;DHT22;45859;51.378;6.736;2023-02-15T13:31:20;12.00;99.90
59999;DHT22;45859;51.378;6.736;2023-02-15T13:33:56;11.90;99.90
59999;DHT22;45859;51.378;6.736;2023-02-15T13:39:15;11.90;99.90
59999;DHT22;45859;51.378;6.736;2023-02-15T13:48:27;12.00;99.90
59999;DHT22;45859;51.378;6.736;2023-02-15T13:51:05;12.00;99.90
59999;DHT22;45859;51.378;6.736;2023-02-15T13:53:57;12.00;99.90
59999;DHT22;45859;51.378;6.736;2023-02-15T13:59:01;12.20;99.90
59999;DHT22;45859;51.378;6.736;2023-02-15T14:07:35;12.30;99.90
59999;DHT22;45859;51.378;6.736;2023-02-15T14:16:33;12.30;99.90
59999;DHT22;45859;51.378;6.736;2023-02-15T14:18:54;12.30;99.90
59999;DHT22;45859;51.378;6.736;2023-02-15T14:21:31;12.30;99.90
59999;DHT22;45859;51.378;6.736;2023-02-15T14:26:56;12.40;99.90
59999;DHT22;45859;51.378;6.736;2023-02-15T14:32:12;12.30;99.90
59999;DHT22;45859;51.378;6.736;2023-02-15T14:34:57;12.50;99.90
59999;DHT22;45859;51.378;6.736;2023-02-15T14:46:45;12.10;99.90
59999;DHT22;45859;51.378;6.736;2023-02-15T14:49:25;12.50;99.90
59999;DHT22;45859;51.378;6.736;2023-02-15T14:51:54;12.10;99.90
59999;DHT22;45859;51.378;6.736;2023-02-15T15:02:17;12.00;99.90
59999;DHT22;45859;51.378;6.736;2023-02-15T15:05:10;12.00;99.90
59999;DHT22;45859;51.378;6.736;2023-02-15T15:07:45;12.00;99.90
59999;DHT22;45859;51.378;6.736;2023-02-15T15:12:56;11.80;99.90
59999;DHT22;45859;51.378;6.736;2023-02-15T15:18:09;11.90;99.90
59999;DHT22;45859;51.378;6.736;2023-02-15T15:20:39;11.80;99.90
59999;DHT22;45859;51.378;6.736;2023-02-15T15:31:24;11.90;99.90
59999;DHT22;45859;51.378;6.736;2023-02-15T15:34:19;11.90;99.90
59999;DHT22;45859;51.378;6.736;2023-02-15T15:45:02;11.70;99.90
59999;DHT22;45859;51.378;6.736;2023-02-15T15:47:49;11.70;99.90
59999;DHT22;45859;51.378;6.736;2023-02-15T15:50:19;11.60;99.90
59999;DHT22;45859;51.378;6.736;2023-02-15T15:52:48;11.60;99.90
59999;DHT22;45859;51.378;6.736;2023-02-15T15:55:18;11.50;99.90
59999;DHT22;45859;51.378;6.736;2023-02-15T15:57:46;11.50;99.90
59999;DHT22;45859;51.378;6.736;2023-02-15T16:03:00;11.40;99.90
59999;DHT22;45859;51.378;6.736;2023-02-15T16:05:26;11.40;99.90
59999;DHT22;45859;51.378;6.736;2023-02-15T16:07:51;11.30;99.90
59999;DHT22;45859;51.378;6.736;2023-02-15T16:10:28;11.50;99.90
59999;DHT22;45859;51.378;6.736;2023-02-15T16:12:54;11.20;99.90
59999;DHT22;45859;51.378;6.736;2023-02-15T16:15:24;11.50;99.90
59999;DHT22;45859;51.378;6.736;2023-02-15T16:17:56;11.10;99.90
59999;DHT22;45859;51.378;6.736;2023-02-15T16:20:33;11.00;99.90
59999;DHT22;45859;51.378;6.736;2023-02-15T16:23:16;10.90;99.90
59999;DHT22;45859;51.378;6.736;2023-02-15T16:25:55;11.00;99.90
59999;DHT22;45859;51.378;6.736;2023-02-15T16:28:22;10.90;99.90
59999;DHT22;45859;51.378;6.736;2023-02-15T16:31:20;10.90;99.90
59999;DHT22;45859;51.378;6.736;2023-02-15T16:33:45;11.00;99.90
59999;DHT22;45859;51.378;6.736;2023-02-15T16:39:08;10.60;99.90
59999;DHT22;45859;51.378;6.736;2023-02-15T16:41:35;10.40;99.90
59999;DHT22;45859;51.378;6.736;2023-02-15T16:44:12;10.30;99.90
59999;DHT22;45859;51.378;6.736;2023-02-15T16:46:43;10.20;99.90
59999;DHT22;45859;51.378;6.736;2023-02-15T16:49:27;10.10;99.90
59999;DHT22;45859;51.378;6.736;2023-02-15T16:51:59;10.10;99.90
59999;DHT22;45859;51.378;6.736;2023-02-15T16:54:27;9.90;99.90
59999;DHT22;45859;51.378;6.736;2023-02-15T16:56:54;10.30;99.90
59999;DHT22;45859;51.378;6.736;2023-02-15T16:59:41;9.70;99.90
59999;DHT22;45859;51.378;6.736;2023-02-15T17:02:17;9.60;99.90
59999;DHT22;45859;51.378;6.736;2023-02-15T17:04:43;9.40;99.90
59999;DHT22;45859;51.378;6.736;2023-02-15T17:07:16;9.20;99.90
59999;DHT22;45859;51.378;6.736;2023-02-15T17:09:54;9.10;99.90
59999;DHT22;45859;51.378;6.736;2023-02-15T17:12:54;9.20;99.90
59999;DHT22;45859;51.378;6.736;2023-02-15T17:15:37;9.00;99.90
59999;DHT22;45859;51.378;6.736;2023-02-15T17:18:16;9.10;99.90
59999;DHT22;45859;51.378;6.736;2023-02-15T17:20:44;9.20;99.90
59999;DHT22;45859;51.378;6.736;2023-02-15T17:25:47;9.40;99.90
59999;DHT22;45859;51.378;6.736;2023-02-15T17:28:25;9.40;99.90
59999;DHT22;45859;51.378;6.736;2023-02-15T17:30:52;9.50;99.90
59999;DHT22;45859;51.378;6.736;2023-02-15T17:33:26;9.60;99.90
59999;DHT22;45859;51.378;6.736;2023-02-15T17:36:03;10.00;99.90
59999;DHT22;45859;51.378;6.736;2023-02-15T17:38:30;9.70;99.90
59999;DHT22;45859;51.378;6.736;2023-02-15T17:40:56;9.70;99.90
59999;DHT22;45859;51.378;6.736;2023-02-15T17:43:24;9.70;99.90
59999;DHT22;45859;51.378;6.736;2023-02-15T17:45:50;9.80;99.90
59999;DHT22;45859;51.378;6.736;2023-02-15T17:48:36;9.70;99.90
59999;DHT22;45859;51.378;6.736;2023-02-15T17:51:04;9.70;99.90
59999;DHT22;45859;51.378;6.736;2023-02-15T17:53:30;9.70;99.90
59999;DHT22;45859;51.378;6.736;2023-02-15T17:55:56;9.70;99.90
59999;DHT22;45859;51.378;6.736;2023-02-15T17:58:22;9.70;99.90
59999;DHT22;45859;51.378;6.736;2023-02-15T18:00:57;9.70;99.90
59999;DHT22;45859;51.378;6.736;2023-02-15T18:03:47;9.60;99.90
59999;DHT22;45859;51.378;6.736;2023-02-15T18:06:33;9.60;99.90
59999;DHT22;45859;51.378;6.736;2023-02-15T18:09:19;9.50;99.90
59999;DHT22;45859;51.378;6.736;2023-02-15T18:12:21;9.60;99.90
59999;DHT22;45859;51.378;6.736;2023-02-15T18:14:47;9.60;99.90
59999;DHT22;45859;51.378;6.736;2023-02-15T18:17:14;9.60;99.90
59999;DHT22;45859;51.378;6.736;2023-02-15T18:19:42;9.60;99.90
59999;DHT22;45859;51.378;6.736;2023-02-15T18:22:16;9.50;99.90
59999;DHT22;45859;51.378;6.736;2023-02-15T18:24:43;9.50;99.90
59999;DHT22;45859;51.378;6.736;2023-02-15T18:27:11;9.40;99.90
59999;DHT22;45859;51.378;6.736;2023-02-15T18:29:37;9.40;99.90
59999;DHT22;45859;51.378;6.736;2023-02-15T18:32:08;9.40;99.90
59999;DHT22;45859;51.378;6.736;2023-02-15T18:34:36;9.40;99.90
59999;DHT22;45859;51.378;6.736;2023-02-15T18:37:05;9.30;99.90
59999;DHT22;45859;51.378;6.736;2023-02-15T18:39:38;9.30;99.90
59999;DHT22;45859;51.378;6.736;2023-02-15T18:42:05;9.30;99.90
59999;DHT22;45859;51.378;6.736;2023-02-15T18:44:31;9.30;99.90
59999;DHT22;45859;51.378;6.736;2023-02-15T18:46:57;9.20;99.90
59999;DHT22;45859;51.378;6.736;2023-02-15T18:49:23;9.10;99.90
59999;DHT22;45859;51.378;6.736;2023-02-15T18:51:49;9.10;99.90
59999;DHT22;45859;51.378;6.736;2023-02-15T18:54:23;9.00;99.90
59999;DHT22;45859;51.378;6.736;2023-02-15T18:56:59;9.00;99.90
59999;DHT22;45859;51.378;6.736;2023-02-15T18:59:26;8.90;99.90